x

Buzzards Bay, Ma (buzm3) Weather Station

12:00pm - Mon 26th Sep 2016 All times are EDT. -4 hours from GMT.

  • Wind
  • 空気 Temp 60°f
  • Sea Pressure 1023mb
  • Buzzards Bay, Ma
  • Buzzards Bay, Ma

More Historic Weather Station data

Upgrade to MSW Pro to gain access to the past 30 days of data for over 8000 Wavebouys and Weather Stations around the globe.

Join Pro

Comparision Forecast

View Surf forecast
   
Mon 09/26 12:00pm  -  1 mph 1023mb 60f
11:00am 1 2 mph 1023.7mb 59f
10:00am 3 5 mph 1023.9mb 57f
9:00am 9 10 mph 1023.8mb 56f
8:00am 10 11 mph 1023.6mb 56f
7:00am 11 14 mph 1023.3mb 56f
6:00am 14 15 mph 1022.6mb 55f
5:00am 14 16 mph 1022.2mb 55f
4:00am 16 17 mph 1022.2mb 55f
3:00am 18
mph
1022.4mb 56f
2:00am 16 18 mph 1022.6mb 57f
1:00am 15 17 mph 1022.6mb 58f
12:00am 16 18 mph 1022.3mb 59f
Sun 09/25 11:00pm 16 18 mph 1022.2mb 60f
10:00pm 18 20 mph 1021.8mb 62f
9:00pm 16 18 mph 1021.4mb 62f
8:00pm 16 17 mph 1020.9mb 63f
7:00pm 15 17 mph 1019.8mb 64f
6:00pm 11 13 mph 1019.1mb 64f
5:00pm 11 13 mph 1018.7mb 64f
4:00pm 18 21 mph 1018.6mb 63f
3:00pm 16 18 mph 1019.2mb 62f
2:00pm 13 14 mph 1019.5mb 60f
1:00pm 15 16 mph 1020.1mb 59f
12:00pm 16 18 mph 1020.5mb 57f
11:00am 21 23 mph 1020.8mb 56f
10:00am 18 22 mph 1021mb 55f
9:00am 17 20 mph 1021.1mb 54f
8:00am 17 21 mph 1021.1mb 53f
7:00am 21 24 mph 1020.7mb 53f
6:00am 24 26 mph 1020.1mb 54f
5:00am 23 25 mph 1019.8mb 55f
4:00am 18 21 mph 1019.6mb 56f
3:00am 20 22 mph 1019.2mb 57f
2:00am 20 23 mph 1019.3mb 59f
1:00am 15 17 mph 1019.1mb 60f
12:00am 14 16 mph 1019.5mb 61f
Sat 09/24 11:00pm 14 16 mph 1019.7mb 61f
10:00pm 16 17 mph 1019.6mb 62f
9:00pm 11 13 mph 1019.6mb 63f
8:00pm 1 2 mph 1019.2mb 62f
7:00pm 2 3 mph 1018.9mb 62f
6:00pm 6 8 mph 1018.4mb 62f
5:00pm 7 8 mph 1018.2mb 62f
4:00pm 6 9 mph 1018mb 62f
3:00pm 8 9 mph 1018.3mb 62f
2:00pm 8 9 mph 1018.5mb 62f
1:00pm 14 15 mph 1019.1mb 62f
12:00pm 13 15 mph 1019mb 61f
11:00am 14 18 mph 1019.3mb 60f
10:00am 17 20 mph 1018.9mb 59f
9:00am 18 21 mph 1018.8mb 58f
8:00am 18 21 mph 1018.6mb 58f
7:00am 17 20 mph 1018.4mb 58f
6:00am 23 25 mph 1018.1mb 58f
5:00am 21 24 mph 1017.7mb 58f
4:00am 24 26 mph 1017.4mb 59f
3:00am 23 25 mph 1017.9mb 58f
2:00am 29 32 mph 1017.3mb 59f
1:00am 26 29 mph 1016.7mb 61f
12:00am 23 26 mph 1017.2mb 63f
Fri 09/23 11:00pm 28 31 mph 1017mb 63f
10:00pm 28 30 mph 1016.2mb 64f
9:00pm 28 29 mph 1015.6mb 67f
8:00pm 23 25 mph 1015.1mb 71f
7:00pm 9 10 mph 1014.2mb 69f
6:00pm 8
mph
1014.2mb 70f
5:00pm 10 11 mph 1013.8mb 70f
4:00pm 10 11 mph 1014.2mb 69f
3:00pm 17 18 mph 1014.4mb 69f
2:00pm 11 13 mph 1015mb 69f
1:00pm 10 11 mph 1015.7mb 69f
12:00pm 7
mph
1016mb 68f
11:00am 8 9 mph 1016.6mb 68f
10:00am 3
mph
1017.4mb 68f
9:00am 6 7 mph 1017.5mb 69f
8:00am 5
mph
1017.2mb 68f
7:00am 6
mph
1017.4mb 68f
6:00am 6
mph
1017.2mb 68f
5:00am 2
mph
1017.5mb 68f
4:00am 7
mph
1017.5mb 68f
3:00am 5 6 mph 1018mb 68f
2:00am 6
mph
1018.3mb 68f
1:00am 8 9 mph 1018.6mb 69f
12:00am 10 11 mph 1019.2mb 69f
Thu 09/22 11:00pm 7
mph
1019.9mb 69f
10:00pm 7
mph
1019.9mb 69f
9:00pm 8
mph
1020.4mb 69f
8:00pm 8
mph
1020.2mb 70f
7:00pm 9
mph
1020.1mb 71f
6:00pm 5
mph
1020.3mb 72f